Rms Voerde — V2AD8 — position and weather

sailwx.info

Track history (hours):
 
Tides and Currents Weather Stations Pressure Air Temp Water Temp Dewpoint Dewpoint Depression Visibility Wind Speed Wind Dir Waves Ship Positions

Rms Voerde

Last reported at 2018-Jun-19 18:30 UTC. Time now 2018-Jun-19 18:28 UTC.
Position N 55°30' W 001°26'.

Length 90 m; draft 3.6 m.

Type: Ship. MMSI: 304010905.

Date/timePositionNaut miles runAvg speedWind from/ knotsBaromVisibWave heightAir tempDewpointWater temp
2018-Jun-19 18:30N 55°30' W 001°26'510.0
2018-Jun-19 18:00N 55°25' W 001°25'1110.3
2018-Jun-19 16:58N 55°14' W 001°23'510.7
2018-Jun-19 16:30N 55°09' W 001°21'510.8
2018-Jun-19 16:01N 55°04' W 001°21'4 8.6
2018-Jun-19 15:30N 55°01' W 001°25'3 5.5
2018-Jun-19 15:00N 54°59' W 001°29'2 3.9
2018-Jun-19 14:30N 54°58' W 001°32'0 0.0
2018-Jun-19 14:00N 54°58' W 001°32'0 0.0
2018-Jun-19 13:24N 54°58' W 001°32'0 0.0
2018-Jun-19 12:57N 54°58' W 001°32'0 0.0
2018-Jun-19 12:25N 54°58' W 001°32'0 0.0
2018-Jun-19 11:57N 54°58' W 001°32'0 0.0
2018-Jun-19 11:29N 54°58' W 001°32'0 0.0
2018-Jun-19 11:00N 54°58' W 001°32'0 0.0
2018-Jun-19 10:30N 54°58' W 001°32'0 0.0
2018-Jun-19 10:00N 54°58' W 001°32'0 0.0
2018-Jun-19 09:30N 54°58' W 001°32'0 0.0
2018-Jun-19 09:00N 54°58' W 001°32'0 0.0
2018-Jun-19 08:30N 54°58' W 001°32'0 0.0
2018-Jun-19 08:00N 54°58' W 001°32'0 0.9
2018-Jun-19 07:30N 54°59' W 001°32'2 4.1
2018-Jun-19 07:00N 54°59' W 001°29'2 4.4
2018-Jun-19 06:31N 55°01' W 001°26'2 3.7
2018-Jun-19 06:00N 55°02' W 001°23'0 0.1
2018-Jun-19 05:26N 55°02' W 001°23'0 0.0
2018-Jun-19 04:59N 55°02' W 001°23'0 0.0
2018-Jun-19 04:29N 55°02' W 001°23'0 0.0
2018-Jun-19 03:59N 55°02' W 001°23'0 0.0
2018-Jun-19 03:29N 55°02' W 001°23'0 0.0
2018-Jun-19 02:59N 55°02' W 001°23'0 0.0
2018-Jun-19 02:29N 55°02' W 001°23'0 0.0
2018-Jun-19 01:59N 55°02' W 001°23'0 0.0
2018-Jun-19 01:29N 55°02' W 001°23'0 0.0
2018-Jun-19 00:59N 55°02' W 001°23'0 0.0
2018-Jun-19 00:29N 55°02' W 001°23'0 0.0
2018-Jun-19 00:00N 55°02' W 001°23'0 0.0
2018-Jun-18 23:29N 55°02' W 001°23'0 0.0
2018-Jun-18 22:59N 55°02' W 001°23'0 0.0
2018-Jun-18 22:29N 55°02' W 001°23'0 0.0
2018-Jun-18 21:59N 55°02' W 001°23'0 0.0
2018-Jun-18 21:29N 55°02' W 001°23'0 0.0
2018-Jun-18 20:59N 55°02' W 001°23'0 0.0
2018-Jun-18 20:29N 55°02' W 001°23'0 0.0
2018-Jun-18 19:59N 55°02' W 001°23'0 0.0
2018-Jun-18 19:29N 55°02' W 001°23'0 0.0
2018-Jun-18 18:59N 55°02' W 001°23'0 0.0
2018-Jun-18 18:29N 55°02' W 001°23'0 0.0
2018-Jun-18 17:59N 55°02' W 001°23'0 0.0
2018-Jun-18 17:29N 55°02' W 001°23'0 0.0
2018-Jun-18 16:59N 55°02' W 001°23'0 0.0
2018-Jun-18 16:29N 55°02' W 001°23'0 0.0
2018-Jun-18 16:00N 55°02' W 001°23'0 0.0
2018-Jun-18 15:29N 55°02' W 001°23'0 0.0
2018-Jun-18 14:59N 55°02' W 001°23'0 0.0
2018-Jun-18 14:29N 55°02' W 001°23'0 0.0
2018-Jun-18 13:59N 55°02' W 001°23'0 0.0
2018-Jun-18 13:29N 55°02' W 001°23'0 0.0
2018-Jun-18 12:59N 55°02' W 001°23'0 0.0
2018-Jun-18 12:26N 55°02' W 001°23'0 0.0
2018-Jun-18 12:00N 55°02' W 001°23'0 0.0
2018-Jun-18 11:23N 55°02' W 001°23'0 0.0
2018-Jun-18 10:59N 55°02' W 001°23'0 0.0
2018-Jun-18 10:29N 55°02' W 001°23'0 0.1
2018-Jun-18 09:59N 55°02' W 001°23'0 0.0
2018-Jun-18 09:26N 55°02' W 001°23'0 0.0
2018-Jun-18 08:59N 55°02' W 001°23'0 0.0
2018-Jun-18 08:29N 55°02' W 001°23'0 0.1
2018-Jun-18 07:59N 55°02' W 001°23'0 0.0
2018-Jun-18 07:29N 55°02' W 001°23'0 0.0
2018-Jun-18 06:59N 55°02' W 001°23'0 0.0
2018-Jun-18 06:29N 55°02' W 001°23'0 0.0
2018-Jun-18 05:59N 55°02' W 001°23'0 0.0
2018-Jun-18 05:29N 55°02' W 001°23'0 0.0
2018-Jun-18 04:59N 55°02' W 001°23'0 0.0
2018-Jun-18 04:29N 55°02' W 001°23'0 0.0
2018-Jun-18 03:59N 55°02' W 001°23'0 0.0
2018-Jun-18 03:29N 55°02' W 001°23'0 0.0
2018-Jun-18 02:59N 55°02' W 001°23'0 0.0
2018-Jun-18 02:29N 55°02' W 001°23'0 0.0
2018-Jun-18 01:59N 55°02' W 001°23'0 0.0
2018-Jun-18 01:29N 55°02' W 001°23'0 0.0
2018-Jun-18 01:00N 55°02' W 001°23'0 0.1
2018-Jun-18 00:29N 55°02' W 001°23'0 0.1
2018-Jun-17 23:59N 55°02' W 001°23'0 0.0
2018-Jun-17 23:29N 55°02' W 001°23'0 0.0
2018-Jun-17 22:59N 55°02' W 001°23'0 0.0
2018-Jun-17 22:29N 55°02' W 001°23'0 0.0
2018-Jun-17 21:59N 55°02' W 001°23'0 0.0
2018-Jun-17 21:29N 55°02' W 001°23'0 0.0
2018-Jun-17 20:59N 55°02' W 001°23'0 0.0
2018-Jun-17 20:29N 55°02' W 001°23'0 0.0
2018-Jun-17 19:59N 55°02' W 001°23'0 0.1
2018-Jun-17 19:29N 55°02' W 001°23'0 0.1
2018-Jun-17 18:59N 55°02' W 001°23'0 0.1
2018-Jun-17 18:29N 55°02' W 001°23'0 0.0
2018-Jun-17 17:59N 55°02' W 001°23'0 0.0
2018-Jun-17 17:29N 55°02' W 001°23'0 0.0
2018-Jun-17 16:59N 55°02' W 001°23'0 0.0
2018-Jun-17 16:29N 55°02' W 001°23'0 0.1
2018-Jun-17 15:59N 55°02' W 001°23'0 0.0
2018-Jun-17 15:29N 55°02' W 001°23'0 0.0
2018-Jun-17 14:59N 55°02' W 001°23'0 0.0
2018-Jun-17 14:29N 55°02' W 001°23'0 0.0
2018-Jun-17 13:59N 55°02' W 001°23'0 0.0
2018-Jun-17 13:29N 55°02' W 001°23'0 0.0
2018-Jun-17 12:59N 55°02' W 001°23'0 0.0
2018-Jun-17 12:29N 55°02' W 001°23'0 0.0
2018-Jun-17 11:59N 55°02' W 001°23'0 0.0
2018-Jun-17 11:29N 55°02' W 001°23'0 0.0
2018-Jun-17 10:59N 55°02' W 001°23'0 0.0
2018-Jun-17 10:29N 55°02' W 001°23'0 0.0
2018-Jun-17 09:59N 55°02' W 001°23'0 0.0
2018-Jun-17 09:29N 55°02' W 001°23'0 0.0
2018-Jun-17 08:59N 55°02' W 001°23'0 0.1
2018-Jun-17 08:29N 55°02' W 001°23'0 0.0
2018-Jun-17 07:59N 55°02' W 001°23'0 0.1
2018-Jun-17 07:29N 55°02' W 001°23'0 0.0
2018-Jun-17 06:59N 55°02' W 001°23'0 0.1
2018-Jun-17 06:29N 55°02' W 001°23'0 0.0
2018-Jun-17 05:59N 55°02' W 001°23'0 0.0
2018-Jun-17 05:29N 55°02' W 001°23'0 0.0
2018-Jun-17 04:59N 55°02' W 001°23'0 0.0
2018-Jun-17 04:29N 55°02' W 001°23'0 0.0
2018-Jun-17 03:59N 55°02' W 001°23'0 0.0
2018-Jun-17 03:29N 55°02' W 001°23'0 0.0
2018-Jun-17 02:59N 55°02' W 001°23'0 0.1
2018-Jun-17 02:29N 55°02' W 001°23'0 0.0
2018-Jun-17 01:59N 55°02' W 001°23'0 0.0
2018-Jun-17 01:29N 55°02' W 001°23'0 0.0
2018-Jun-17 00:59N 55°02' W 001°23'0 0.0
2018-Jun-17 00:29N 55°02' W 001°23'0 0.0
2018-Jun-16 23:59N 55°02' W 001°23'0 0.0
2018-Jun-16 23:29N 55°02' W 001°23'0 0.0
2018-Jun-16 22:59N 55°02' W 001°23'0 0.0
2018-Jun-16 22:29N 55°02' W 001°23'0 0.0
2018-Jun-16 22:00N 55°02' W 001°23'0 0.0
2018-Jun-16 21:29N 55°02' W 001°23'0 0.0
2018-Jun-16 20:59N 55°02' W 001°23'0 0.1
2018-Jun-16 20:29N 55°02' W 001°23'0 0.0
2018-Jun-16 19:59N 55°02' W 001°23'0 0.0
2018-Jun-16 19:29N 55°02' W 001°23'0 0.0
2018-Jun-16 18:59N 55°02' W 001°23'0 0.0
2018-Jun-16 18:29N 55°02' W 001°23'0 0.0
2018-Jun-16 17:56N 55°02' W 001°23'0 0.0
2018-Jun-16 17:29N 55°02' W 001°23'0 0.0
2018-Jun-16 16:59N 55°02' W 001°23'0 0.0
2018-Jun-16 16:29N 55°02' W 001°23'0 0.0
2018-Jun-16 15:59N 55°02' W 001°23'0 0.0
2018-Jun-16 15:29N 55°02' W 001°23'0 0.2
2018-Jun-16 14:59N 55°02' W 001°23'0 0.1
2018-Jun-16 14:29N 55°02' W 001°23'0 0.1
2018-Jun-16 13:59N 55°02' W 001°23'0 0.1
2018-Jun-16 13:29N 55°02' W 001°23'0 0.0
2018-Jun-16 12:59N 55°02' W 001°23'0 0.0
2018-Jun-16 12:29N 55°02' W 001°23'0 0.0
2018-Jun-16 11:59N 55°02' W 001°23'0 0.0
2018-Jun-16 11:29N 55°02' W 001°23'0 0.0
2018-Jun-16 10:59N 55°02' W 001°23'0 0.0
2018-Jun-16 10:29N 55°02' W 001°23'0 0.0
2018-Jun-16 09:59N 55°02' W 001°23'0 0.0
2018-Jun-16 09:29N 55°02' W 001°23'0 0.0
2018-Jun-16 08:59N 55°02' W 001°23'0 0.0
2018-Jun-16 08:29N 55°02' W 001°23'0 0.0
2018-Jun-16 07:59N 55°02' W 001°23'0 0.0
2018-Jun-16 07:29N 55°02' W 001°23'0 0.0
2018-Jun-16 06:59N 55°02' W 001°23'0 0.1
2018-Jun-16 06:29N 55°02' W 001°23'0 0.1
2018-Jun-16 05:59N 55°02' W 001°23'0 0.0
2018-Jun-16 05:29N 55°02' W 001°23'0 0.0
2018-Jun-16 04:59N 55°02' W 001°23'0 0.0
2018-Jun-16 04:29N 55°02' W 001°23'0 0.0
2018-Jun-16 03:59N 55°02' W 001°23'0 0.0
2018-Jun-16 03:30N 55°02' W 001°23'0 0.0
2018-Jun-16 03:00N 55°02' W 001°23'0 0.0
2018-Jun-16 02:29N 55°02' W 001°23'0 0.0
2018-Jun-16 01:59N 55°02' W 001°23'0 0.1
2018-Jun-16 01:29N 55°02' W 001°23'0 0.1
2018-Jun-16 00:59N 55°02' W 001°23'0 0.1
2018-Jun-16 00:29N 55°02' W 001°23'0 0.0
2018-Jun-15 23:56N 55°02' W 001°23'0 0.0
2018-Jun-15 23:29N 55°02' W 001°23'0 0.0
2018-Jun-15 22:59N 55°02' W 001°23'0 0.0
2018-Jun-15 22:29N 55°02' W 001°23'0 0.0
2018-Jun-15 21:59N 55°02' W 001°23'0 0.0
2018-Jun-15 21:29N 55°02' W 001°23'0 0.0
2018-Jun-15 21:00N 55°02' W 001°23'0 0.0
2018-Jun-15 20:29N 55°02' W 001°23'0 0.0
2018-Jun-15 19:59N 55°02' W 001°23'0 0.0
2018-Jun-15 19:29N 55°02' W 001°23'0 0.0
2018-Jun-15 18:59N 55°02' W 001°23'0 0.0
2018-Jun-15 18:30N 55°02' W 001°23'0 0.0
2018-Jun-15 17:59N 55°02' W 001°23'0 0.1
2018-Jun-15 17:29N 55°02' W 001°23'0 0.0
2018-Jun-15 16:59N 55°02' W 001°23'0 0.1
2018-Jun-15 16:29N 55°02' W 001°23'0 0.0
2018-Jun-15 15:59N 55°02' W 001°23'0 0.0
2018-Jun-15 15:29N 55°02' W 001°23'0 0.0
2018-Jun-15 14:59N 55°02' W 001°23'0 0.0
2018-Jun-15 14:29N 55°02' W 001°23'0 0.0
2018-Jun-15 13:59N 55°02' W 001°23'0 0.1
2018-Jun-15 13:29N 55°02' W 001°23'0 0.0
2018-Jun-15 12:59N 55°02' W 001°23'0 0.0
2018-Jun-15 12:29N 55°02' W 001°23'0 0.0
2018-Jun-15 11:59N 55°02' W 001°23'0 0.0
2018-Jun-15 11:29N 55°02' W 001°23'0 0.1
2018-Jun-15 10:59N 55°02' W 001°23'0 0.0
2018-Jun-15 10:29N 55°02' W 001°23'0 0.0
2018-Jun-15 10:00N 55°02' W 001°23'0 0.0
2018-Jun-15 09:30N 55°02' W 001°23'0 0.0
2018-Jun-15 09:00N 55°02' W 001°23'0 0.0
2018-Jun-15 08:30N 55°02' W 001°23'0 0.0
2018-Jun-15 08:01N 55°02' W 001°23'1 2.4
2018-Jun-15 07:30N 55°02' W 001°21'4 8.5
2018-Jun-15 07:00N 55°07' W 001°21'5 9.3
2018-Jun-15 06:30N 55°11' W 001°22'5 9.3
2018-Jun-15 06:00N 55°16' W 001°23'5 9.6
2018-Jun-15 05:30N 55°21' W 001°24'510.0
2018-Jun-15 05:00N 55°26' W 001°25'510.1
2018-Jun-15 04:30N 55°31' W 001°26'5 9.9
2018-Jun-15 04:00N 55°36' W 001°26'510.6
2018-Jun-15 03:30N 55°41' W 001°27'510.2
2018-Jun-15 03:00N 55°46' W 001°28'5 9.8
2018-Jun-15 02:30N 55°51' W 001°30'5 9.8
2018-Jun-15 02:00N 55°56' W 001°32'5 9.8
2018-Jun-15 01:30N 56°00' W 001°34'5 9.8
2018-Jun-15 01:00N 56°05' W 001°36'510.1
2018-Jun-15 00:30N 56°10' W 001°38'45 9.3
2018-Jun-14 19:41N 56°54' W 001°45'1 7.8
2018-Jun-14 19:30N 56°56' W 001°46'4 7.7
2018-Jun-14 19:00N 56°60' W 001°47'4 7.7
2018-Jun-14 18:30N 57°03' W 001°48'4 8.6
2018-Jun-14 18:00N 57°06' W 001°54'4 8.6
2018-Jun-14 17:30N 57°09' W 002°01'2 4.7
2018-Jun-14 17:00N 57°08' W 002°05'0 0.0
2018-Jun-14 16:30N 57°08' W 002°05'0 0.0
2018-Jun-14 16:01N 57°08' W 002°05'0 0.0
2018-Jun-14 15:28N 57°08' W 002°05'0 0.0
2018-Jun-14 14:58N 57°08' W 002°05'0 0.0
2018-Jun-14 14:28N 57°08' W 002°05'0 0.0
2018-Jun-14 13:58N 57°08' W 002°05'0 0.0
2018-Jun-14 13:28N 57°08' W 002°05'0 0.0
2018-Jun-14 12:58N 57°08' W 002°05'0 0.0
2018-Jun-14 12:30N 57°08' W 002°05'0 0.8
2018-Jun-14 12:00N 57°09' W 002°04'2 4.8
2018-Jun-14 11:30N 57°08' W 001°60'2 3.1
2018-Jun-14 11:00N 57°09' W 001°58'1 1.7
2018-Jun-14 10:30N 57°10' W 001°58'3 5.6
2018-Jun-14 10:00N 57°07' W 001°59'1 1.5
2018-Jun-14 09:31N 57°08' W 001°59'1 2.5
2018-Jun-14 09:00N 57°09' W 001°59'1 1.3
2018-Jun-14 08:30N 57°10' W 001°59'1 1.2
2018-Jun-14 08:00N 57°10' W 001°60'0 0.9
2018-Jun-14 07:30N 57°11' W 002°00'1 2.2
2018-Jun-14 07:00N 57°12' W 002°01'2 4.8
2018-Jun-14 06:30N 57°10' W 001°58'510.2
2018-Jun-14 06:00N 57°06' W 001°51'5 9.7
2018-Jun-14 05:29N 57°01' W 001°49'72 9.2
2018-Jun-13 21:44N 55°50' W 001°31'210.9
2018-Jun-13 21:30N 55°48' W 001°30'611.4
2018-Jun-13 21:01N 55°42' W 001°28'611.5
2018-Jun-13 20:30N 55°37' W 001°25'811.7
2018-Jun-13 19:51N 55°29' W 001°21'511.8
2018-Jun-13 19:24N 55°24' W 001°19'411.3
2018-Jun-13 19:00N 55°20' W 001°18'811.1
2018-Jun-13 18:19N 55°12' W 001°14'410.7
2018-Jun-13 17:56N 55°08' W 001°13'510.8
2018-Jun-13 17:30N 55°04' W 001°12'510.3
2018-Jun-13 17:00N 54°59' W 001°10'5 9.9
2018-Jun-13 16:28N 54°54' W 001°09'12 0.6
2018-Jun-12 22:15N 54°42' W 001°12'3 7.2
2018-Jun-12 21:46N 54°41' W 001°06'1 4.2
2018-Jun-12 21:26N 54°41' W 001°03'26 9.5
2018-Jun-12 18:42N 54°30' W 000°23'311.9
2018-Jun-12 18:27N 54°28' W 000°20'511.6
2018-Jun-12 18:00N 54°24' W 000°14'611.0
2018-Jun-12 17:30N 54°20' W 000°08'510.6
2018-Jun-12 17:01N 54°16' W 000°02'510.2
2018-Jun-12 16:31N 54°12' E 000°04'5 9.7
2018-Jun-12 16:01N 54°08' E 000°09'5 9.7
2018-Jun-12 15:30N 54°04' E 000°14'7210.6
2018-Jun-12 08:41N 53°05' E 001°22'210.9
2018-Jun-12 08:30N 53°03' E 001°25'510.3
2018-Jun-12 08:00N 52°60' E 001°30'5 9.6
2018-Jun-12 07:31N 52°56' E 001°36'5 9.2
2018-Jun-12 07:01N 52°53' E 001°42'4 8.9
2018-Jun-12 06:30N 52°50' E 001°47'5 9.1
2018-Jun-12 06:00N 52°48' E 001°54'4 8.5
2018-Jun-12 05:30N 52°45' E 001°58'3310.7
2018-Jun-12 02:24N 52°11' E 001°55'512.7
2018-Jun-12 02:00N 52°06' E 001°56'713.4
2018-Jun-12 01:30N 52°00' E 001°51'713.2
2018-Jun-12 01:01N 51°54' E 001°48'612.5
2018-Jun-12 00:30N 51°48' E 001°49'612.7
2018-Jun-12 00:00N 51°41' E 001°49'611.9
2018-Jun-11 23:30N 51°36' E 001°46'612.1
2018-Jun-11 23:01N 51°31' E 001°40'611.1
2018-Jun-11 22:30N 51°29' E 001°31'510.6
2018-Jun-11 22:00N 51°29' E 001°23'5 9.8
2018-Jun-11 21:30N 51°29' E 001°15'5 9.6
2018-Jun-11 21:00N 51°29' E 001°07'5 9.9
2018-Jun-11 20:30N 51°29' E 000°59'5 9.4
2018-Jun-11 20:00N 51°29' E 000°52'4 8.1
2018-Jun-11 19:30N 51°27' E 000°46'3 6.7
2018-Jun-11 19:00N 51°24' E 000°44'2 3.4
2018-Jun-11 18:29N 51°23' E 000°46'0 0.0
2018-Jun-11 18:00N 51°23' E 000°46'0 0.0
2018-Jun-11 17:29N 51°23' E 000°46'0 0.0
2018-Jun-11 16:59N 51°23' E 000°46'0 0.0
2018-Jun-11 12:00N 51°23' E 000°46'24 5.3
2018-Jun-11 07:26N 51°28' E 001°23'511.7
2018-Jun-11 07:01N 51°25' E 001°29'2 4.1
2018-Jun-11 06:30N 51°24' E 001°32'4 7.3
2018-Jun-11 06:01N 51°21' E 001°36'4 7.2
2018-Jun-11 05:30N 51°18' E 001°37'4 7.3
2018-Jun-11 05:00N 51°14' E 001°37'4 7.3
2018-Jun-11 04:30N 51°11' E 001°36'4 8.4
2018-Jun-11 04:00N 51°07' E 001°39'4 8.2
2018-Jun-11 03:30N 51°03' E 001°36'7 9.5
2018-Jun-11 02:47N 50°58' E 001°29'18 9.9
2018-Jun-11 00:58N 50°41' E 001°18'43 9.2
2018-Jun-10 20:16N 50°22' E 000°17'2 9.0
2018-Jun-10 20:00N 50°22' E 000°13'5 9.1
2018-Jun-10 19:29N 50°20' E 000°06'4 9.1
2018-Jun-10 19:01N 50°19' W 000°00'8 9.7
2018-Jun-10 18:08N 50°17' W 000°13'210.1
2018-Jun-10 17:58N 50°17' W 000°15'510.4
2018-Jun-10 17:30N 50°15' W 000°23'510.8
2018-Jun-10 17:01N 50°14' W 000°31'510.9
2018-Jun-10 16:31N 50°12' W 000°39'510.8
2018-Jun-10 16:00N 50°11' W 000°47'610.6
2018-Jun-10 15:27N 50°10' W 000°56'510.4
2018-Jun-10 15:01N 50°09' W 001°03'610.6
2018-Jun-10 14:26N 50°07' W 001°12'910.3
2018-Jun-10 13:31N 50°04' W 001°27'510.3
2018-Jun-10 13:00N 50°03' W 001°35'5 9.5
2018-Jun-10 12:30N 50°02' W 001°42'4 9.0
2018-Jun-10 12:01N 50°01' W 001°48'4 8.5
2018-Jun-10 11:31N 49°60' W 001°55'4 8.3
2018-Jun-10 11:00N 49°59' W 002°01'4 8.2
2018-Jun-10 10:28N 49°58' W 002°08'6 8.6
2018-Jun-10 09:48N 49°56' W 002°16'4 9.0
2018-Jun-10 09:18N 49°55' W 002°23'3 9.3
2018-Jun-10 09:00N 49°54' W 002°27'5 9.2
2018-Jun-10 08:30N 49°52' W 002°34'  
Track history (hours):
 
Tides and Currents Weather Stations Pressure Air Temp Water Temp Dewpoint Dewpoint Depression Visibility Wind Speed Wind Dir Waves Ship Positions

Rms Voerde

Last reported at 2018-Jun-19 18:30 UTC. Time now 2018-Jun-19 18:28 UTC.
Position N 55°30' W 001°26'.

Length 90 m; draft 3.6 m.

Type: Ship. MMSI: 304010905.

Date/timePositionNaut miles runAvg speedWind from/ knotsBaromVisibWave heightAir tempDewpointWater temp
2018-Jun-19 18:30N 55°30' W 001°26'510.0
2018-Jun-19 18:00N 55°25' W 001°25'1110.3
2018-Jun-19 16:58N 55°14' W 001°23'510.7
2018-Jun-19 16:30N 55°09' W 001°21'510.8
2018-Jun-19 16:01N 55°04' W 001°21'4 8.6
2018-Jun-19 15:30N 55°01' W 001°25'3 5.5
2018-Jun-19 15:00N 54°59' W 001°29'2 3.9
2018-Jun-19 14:30N 54°58' W 001°32'0 0.0
2018-Jun-19 14:00N 54°58' W 001°32'0 0.0
2018-Jun-19 13:24N 54°58' W 001°32'0 0.0
2018-Jun-19 12:57N 54°58' W 001°32'0 0.0
2018-Jun-19 12:25N 54°58' W 001°32'0 0.0
2018-Jun-19 11:57N 54°58' W 001°32'0 0.0
2018-Jun-19 11:29N 54°58' W 001°32'0 0.0
2018-Jun-19 11:00N 54°58' W 001°32'0 0.0
2018-Jun-19 10:30N 54°58' W 001°32'0 0.0
2018-Jun-19 10:00N 54°58' W 001°32'0 0.0
2018-Jun-19 09:30N 54°58' W 001°32'0 0.0
2018-Jun-19 09:00N 54°58' W 001°32'0 0.0
2018-Jun-19 08:30N 54°58' W 001°32'0 0.0
2018-Jun-19 08:00N 54°58' W 001°32'0 0.9
2018-Jun-19 07:30N 54°59' W 001°32'2 4.1
2018-Jun-19 07:00N 54°59' W 001°29'2 4.4
2018-Jun-19 06:31N 55°01' W 001°26'2 3.7
2018-Jun-19 06:00N 55°02' W 001°23'0 0.1
2018-Jun-19 05:26N 55°02' W 001°23'0 0.0
2018-Jun-19 04:59N 55°02' W 001°23'0 0.0
2018-Jun-19 04:29N 55°02' W 001°23'0 0.0
2018-Jun-19 03:59N 55°02' W 001°23'0 0.0
2018-Jun-19 03:29N 55°02' W 001°23'0 0.0
2018-Jun-19 02:59N 55°02' W 001°23'0 0.0
2018-Jun-19 02:29N 55°02' W 001°23'0 0.0
2018-Jun-19 01:59N 55°02' W 001°23'0 0.0
2018-Jun-19 01:29N 55°02' W 001°23'0 0.0
2018-Jun-19 00:59N 55°02' W 001°23'0 0.0
2018-Jun-19 00:29N 55°02' W 001°23'0 0.0
2018-Jun-19 00:00N 55°02' W 001°23'0 0.0
2018-Jun-18 23:29N 55°02' W 001°23'0 0.0
2018-Jun-18 22:59N 55°02' W 001°23'0 0.0
2018-Jun-18 22:29N 55°02' W 001°23'0 0.0
2018-Jun-18 21:59N 55°02' W 001°23'0 0.0
2018-Jun-18 21:29N 55°02' W 001°23'0 0.0
2018-Jun-18 20:59N 55°02' W 001°23'0 0.0
2018-Jun-18 20:29N 55°02' W 001°23'0 0.0
2018-Jun-18 19:59N 55°02' W 001°23'0 0.0
2018-Jun-18 19:29N 55°02' W 001°23'0 0.0
2018-Jun-18 18:59N 55°02' W 001°23'0 0.0
2018-Jun-18 18:29N 55°02' W 001°23'0 0.0
2018-Jun-18 17:59N 55°02' W 001°23'0 0.0
2018-Jun-18 17:29N 55°02' W 001°23'0 0.0
2018-Jun-18 16:59N 55°02' W 001°23'0 0.0
2018-Jun-18 16:29N 55°02' W 001°23'0 0.0
2018-Jun-18 16:00N 55°02' W 001°23'0 0.0
2018-Jun-18 15:29N 55°02' W 001°23'0 0.0
2018-Jun-18 14:59N 55°02' W 001°23'0 0.0
2018-Jun-18 14:29N 55°02' W 001°23'0 0.0
2018-Jun-18 13:59N 55°02' W 001°23'0 0.0
2018-Jun-18 13:29N 55°02' W 001°23'0 0.0
2018-Jun-18 12:59N 55°02' W 001°23'0 0.0
2018-Jun-18 12:26N 55°02' W 001°23'0 0.0
2018-Jun-18 12:00N 55°02' W 001°23'0 0.0
2018-Jun-18 11:23N 55°02' W 001°23'0 0.0
2018-Jun-18 10:59N 55°02' W 001°23'0 0.0
2018-Jun-18 10:29N 55°02' W 001°23'0 0.1
2018-Jun-18 09:59N 55°02' W 001°23'0 0.0
2018-Jun-18 09:26N 55°02' W 001°23'0 0.0
2018-Jun-18 08:59N 55°02' W 001°23'0 0.0
2018-Jun-18 08:29N 55°02' W 001°23'0 0.1
2018-Jun-18 07:59N 55°02' W 001°23'0 0.0
2018-Jun-18 07:29N 55°02' W 001°23'0 0.0
2018-Jun-18 06:59N 55°02' W 001°23'0 0.0
2018-Jun-18 06:29N 55°02' W 001°23'0 0.0
2018-Jun-18 05:59N 55°02' W 001°23'0 0.0
2018-Jun-18 05:29N 55°02' W 001°23'0 0.0
2018-Jun-18 04:59N 55°02' W 001°23'0 0.0
2018-Jun-18 04:29N 55°02' W 001°23'0 0.0
2018-Jun-18 03:59N 55°02' W 001°23'0 0.0
2018-Jun-18 03:29N 55°02' W 001°23'0 0.0
2018-Jun-18 02:59N 55°02' W 001°23'0 0.0
2018-Jun-18 02:29N 55°02' W 001°23'0 0.0
2018-Jun-18 01:59N 55°02' W 001°23'0 0.0
2018-Jun-18 01:29N 55°02' W 001°23'0 0.0
2018-Jun-18 01:00N 55°02' W 001°23'0 0.1
2018-Jun-18 00:29N 55°02' W 001°23'0 0.1
2018-Jun-17 23:59N 55°02' W 001°23'0 0.0
2018-Jun-17 23:29N 55°02' W 001°23'0 0.0
2018-Jun-17 22:59N 55°02' W 001°23'0 0.0
2018-Jun-17 22:29N 55°02' W 001°23'0 0.0
2018-Jun-17 21:59N 55°02' W 001°23'0 0.0
2018-Jun-17 21:29N 55°02' W 001°23'0 0.0
2018-Jun-17 20:59N 55°02' W 001°23'0 0.0
2018-Jun-17 20:29N 55°02' W 001°23'0 0.0
2018-Jun-17 19:59N 55°02' W 001°23'0 0.1
2018-Jun-17 19:29N 55°02' W 001°23'0 0.1
2018-Jun-17 18:59N 55°02' W 001°23'0 0.1
2018-Jun-17 18:29N 55°02' W 001°23'0 0.0
2018-Jun-17 17:59N 55°02' W 001°23'0 0.0
2018-Jun-17 17:29N 55°02' W 001°23'0 0.0
2018-Jun-17 16:59N 55°02' W 001°23'0 0.0
2018-Jun-17 16:29N 55°02' W 001°23'0 0.1
2018-Jun-17 15:59N 55°02' W 001°23'0 0.0
2018-Jun-17 15:29N 55°02' W 001°23'0 0.0
2018-Jun-17 14:59N 55°02' W 001°23'0 0.0
2018-Jun-17 14:29N 55°02' W 001°23'0 0.0
2018-Jun-17 13:59N 55°02' W 001°23'0 0.0
2018-Jun-17 13:29N 55°02' W 001°23'0 0.0
2018-Jun-17 12:59N 55°02' W 001°23'0 0.0
2018-Jun-17 12:29N 55°02' W 001°23'0 0.0
2018-Jun-17 11:59N 55°02' W 001°23'0 0.0
2018-Jun-17 11:29N 55°02' W 001°23'0 0.0
2018-Jun-17 10:59N 55°02' W 001°23'0 0.0
2018-Jun-17 10:29N 55°02' W 001°23'0 0.0
2018-Jun-17 09:59N 55°02' W 001°23'0 0.0
2018-Jun-17 09:29N 55°02' W 001°23'0 0.0
2018-Jun-17 08:59N 55°02' W 001°23'0 0.1
2018-Jun-17 08:29N 55°02' W 001°23'0 0.0
2018-Jun-17 07:59N 55°02' W 001°23'0 0.1
2018-Jun-17 07:29N 55°02' W 001°23'0 0.0
2018-Jun-17 06:59N 55°02' W 001°23'0 0.1
2018-Jun-17 06:29N 55°02' W 001°23'0 0.0
2018-Jun-17 05:59N 55°02' W 001°23'0 0.0
2018-Jun-17 05:29N 55°02' W 001°23'0 0.0
2018-Jun-17 04:59N 55°02' W 001°23'0 0.0
2018-Jun-17 04:29N 55°02' W 001°23'0 0.0
2018-Jun-17 03:59N 55°02' W 001°23'0 0.0
2018-Jun-17 03:29N 55°02' W 001°23'0 0.0
2018-Jun-17 02:59N 55°02' W 001°23'0 0.1
2018-Jun-17 02:29N 55°02' W 001°23'0 0.0
2018-Jun-17 01:59N 55°02' W 001°23'0 0.0
2018-Jun-17 01:29N 55°02' W 001°23'0 0.0
2018-Jun-17 00:59N 55°02' W 001°23'0 0.0
2018-Jun-17 00:29N 55°02' W 001°23'0 0.0
2018-Jun-16 23:59N 55°02' W 001°23'0 0.0
2018-Jun-16 23:29N 55°02' W 001°23'0 0.0
2018-Jun-16 22:59N 55°02' W 001°23'0 0.0
2018-Jun-16 22:29N 55°02' W 001°23'0 0.0
2018-Jun-16 22:00N 55°02' W 001°23'0 0.0
2018-Jun-16 21:29N 55°02' W 001°23'0 0.0
2018-Jun-16 20:59N 55°02' W 001°23'0 0.1
2018-Jun-16 20:29N 55°02' W 001°23'0 0.0
2018-Jun-16 19:59N 55°02' W 001°23'0 0.0
2018-Jun-16 19:29N 55°02' W 001°23'0 0.0
2018-Jun-16 18:59N 55°02' W 001°23'0 0.0
2018-Jun-16 18:29N 55°02' W 001°23'0 0.0
2018-Jun-16 17:56N 55°02' W 001°23'0 0.0
2018-Jun-16 17:29N 55°02' W 001°23'0 0.0
2018-Jun-16 16:59N 55°02' W 001°23'0 0.0
2018-Jun-16 16:29N 55°02' W 001°23'0 0.0
2018-Jun-16 15:59N 55°02' W 001°23'0 0.0
2018-Jun-16 15:29N 55°02' W 001°23'0 0.2
2018-Jun-16 14:59N 55°02' W 001°23'0 0.1
2018-Jun-16 14:29N 55°02' W 001°23'0 0.1
2018-Jun-16 13:59N 55°02' W 001°23'0 0.1
2018-Jun-16 13:29N 55°02' W 001°23'0 0.0
2018-Jun-16 12:59N 55°02' W 001°23'0 0.0
2018-Jun-16 12:29N 55°02' W 001°23'0 0.0
2018-Jun-16 11:59N 55°02' W 001°23'0 0.0
2018-Jun-16 11:29N 55°02' W 001°23'0 0.0
2018-Jun-16 10:59N 55°02' W 001°23'0 0.0
2018-Jun-16 10:29N 55°02' W 001°23'0 0.0
2018-Jun-16 09:59N 55°02' W 001°23'0 0.0
2018-Jun-16 09:29N 55°02' W 001°23'0 0.0
2018-Jun-16 08:59N 55°02' W 001°23'0 0.0
2018-Jun-16 08:29N 55°02' W 001°23'0 0.0
2018-Jun-16 07:59N 55°02' W 001°23'0 0.0
2018-Jun-16 07:29N 55°02' W 001°23'0 0.0
2018-Jun-16 06:59N 55°02' W 001°23'0 0.1
2018-Jun-16 06:29N 55°02' W 001°23'0 0.1
2018-Jun-16 05:59N 55°02' W 001°23'0 0.0
2018-Jun-16 05:29N 55°02' W 001°23'0 0.0
2018-Jun-16 04:59N 55°02' W 001°23'0 0.0
2018-Jun-16 04:29N 55°02' W 001°23'0 0.0
2018-Jun-16 03:59N 55°02' W 001°23'0 0.0
2018-Jun-16 03:30N 55°02' W 001°23'0 0.0
2018-Jun-16 03:00N 55°02' W 001°23'0 0.0
2018-Jun-16 02:29N 55°02' W 001°23'0 0.0
2018-Jun-16 01:59N 55°02' W 001°23'0 0.1
2018-Jun-16 01:29N 55°02' W 001°23'0 0.1
2018-Jun-16 00:59N 55°02' W 001°23'0 0.1
2018-Jun-16 00:29N 55°02' W 001°23'0 0.0
2018-Jun-15 23:56N 55°02' W 001°23'0 0.0
2018-Jun-15 23:29N 55°02' W 001°23'0 0.0
2018-Jun-15 22:59N 55°02' W 001°23'0 0.0
2018-Jun-15 22:29N 55°02' W 001°23'0 0.0
2018-Jun-15 21:59N 55°02' W 001°23'0 0.0
2018-Jun-15 21:29N 55°02' W 001°23'0 0.0
2018-Jun-15 21:00N 55°02' W 001°23'0 0.0
2018-Jun-15 20:29N 55°02' W 001°23'0 0.0
2018-Jun-15 19:59N 55°02' W 001°23'0 0.0
2018-Jun-15 19:29N 55°02' W 001°23'0 0.0
2018-Jun-15 18:59N 55°02' W 001°23'0 0.0
2018-Jun-15 18:30N 55°02' W 001°23'0 0.0
2018-Jun-15 17:59N 55°02' W 001°23'0 0.1
2018-Jun-15 17:29N 55°02' W 001°23'0 0.0
2018-Jun-15 16:59N 55°02' W 001°23'0 0.1
2018-Jun-15 16:29N 55°02' W 001°23'0 0.0
2018-Jun-15 15:59N 55°02' W 001°23'0 0.0
2018-Jun-15 15:29N 55°02' W 001°23'0 0.0
2018-Jun-15 14:59N 55°02' W 001°23'0 0.0
2018-Jun-15 14:29N 55°02' W 001°23'0 0.0
2018-Jun-15 13:59N 55°02' W 001°23'0 0.1
2018-Jun-15 13:29N 55°02' W 001°23'0 0.0
2018-Jun-15 12:59N 55°02' W 001°23'0 0.0
2018-Jun-15 12:29N 55°02' W 001°23'0 0.0
2018-Jun-15 11:59N 55°02' W 001°23'0 0.0
2018-Jun-15 11:29N 55°02' W 001°23'0 0.1
2018-Jun-15 10:59N 55°02' W 001°23'0 0.0
2018-Jun-15 10:29N 55°02' W 001°23'0 0.0
2018-Jun-15 10:00N 55°02' W 001°23'0 0.0
2018-Jun-15 09:30N 55°02' W 001°23'0 0.0
2018-Jun-15 09:00N 55°02' W 001°23'0 0.0
2018-Jun-15 08:30N 55°02' W 001°23'0 0.0
2018-Jun-15 08:01N 55°02' W 001°23'1 2.4
2018-Jun-15 07:30N 55°02' W 001°21'4 8.5
2018-Jun-15 07:00N 55°07' W 001°21'5 9.3
2018-Jun-15 06:30N 55°11' W 001°22'5 9.3
2018-Jun-15 06:00N 55°16' W 001°23'5 9.6
2018-Jun-15 05:30N 55°21' W 001°24'510.0
2018-Jun-15 05:00N 55°26' W 001°25'510.1
2018-Jun-15 04:30N 55°31' W 001°26'5 9.9
2018-Jun-15 04:00N 55°36' W 001°26'510.6
2018-Jun-15 03:30N 55°41' W 001°27'510.2
2018-Jun-15 03:00N 55°46' W 001°28'5 9.8
2018-Jun-15 02:30N 55°51' W 001°30'5 9.8
2018-Jun-15 02:00N 55°56' W 001°32'5 9.8
2018-Jun-15 01:30N 56°00' W 001°34'5 9.8
2018-Jun-15 01:00N 56°05' W 001°36'510.1
2018-Jun-15 00:30N 56°10' W 001°38'45 9.3
2018-Jun-14 19:41N 56°54' W 001°45'1 7.8
2018-Jun-14 19:30N 56°56' W 001°46'4 7.7
2018-Jun-14 19:00N 56°60' W 001°47'4 7.7
2018-Jun-14 18:30N 57°03' W 001°48'4 8.6
2018-Jun-14 18:00N 57°06' W 001°54'4 8.6
2018-Jun-14 17:30N 57°09' W 002°01'2 4.7
2018-Jun-14 17:00N 57°08' W 002°05'0 0.0
2018-Jun-14 16:30N 57°08' W 002°05'0 0.0
2018-Jun-14 16:01N 57°08' W 002°05'0 0.0
2018-Jun-14 15:28N 57°08' W 002°05'0 0.0
2018-Jun-14 14:58N 57°08' W 002°05'0 0.0
2018-Jun-14 14:28N 57°08' W 002°05'0 0.0
2018-Jun-14 13:58N 57°08' W 002°05'0 0.0
2018-Jun-14 13:28N 57°08' W 002°05'0 0.0
2018-Jun-14 12:58N 57°08' W 002°05'0 0.0
2018-Jun-14 12:30N 57°08' W 002°05'0 0.8
2018-Jun-14 12:00N 57°09' W 002°04'2 4.8
2018-Jun-14 11:30N 57°08' W 001°60'2 3.1
2018-Jun-14 11:00N 57°09' W 001°58'1 1.7
2018-Jun-14 10:30N 57°10' W 001°58'3 5.6
2018-Jun-14 10:00N 57°07' W 001°59'1 1.5
2018-Jun-14 09:31N 57°08' W 001°59'1 2.5
2018-Jun-14 09:00N 57°09' W 001°59'1 1.3
2018-Jun-14 08:30N 57°10' W 001°59'1 1.2
2018-Jun-14 08:00N 57°10' W 001°60'0 0.9
2018-Jun-14 07:30N 57°11' W 002°00'1 2.2
2018-Jun-14 07:00N 57°12' W 002°01'2 4.8
2018-Jun-14 06:30N 57°10' W 001°58'510.2
2018-Jun-14 06:00N 57°06' W 001°51'5 9.7
2018-Jun-14 05:29N 57°01' W 001°49'72 9.2
2018-Jun-13 21:44N 55°50' W 001°31'210.9
2018-Jun-13 21:30N 55°48' W 001°30'611.4
2018-Jun-13 21:01N 55°42' W 001°28'611.5
2018-Jun-13 20:30N 55°37' W 001°25'811.7
2018-Jun-13 19:51N 55°29' W 001°21'511.8
2018-Jun-13 19:24N 55°24' W 001°19'411.3
2018-Jun-13 19:00N 55°20' W 001°18'811.1
2018-Jun-13 18:19N 55°12' W 001°14'410.7
2018-Jun-13 17:56N 55°08' W 001°13'510.8
2018-Jun-13 17:30N 55°04' W 001°12'510.3
2018-Jun-13 17:00N 54°59' W 001°10'5 9.9
2018-Jun-13 16:28N 54°54' W 001°09'12 0.6
2018-Jun-12 22:15N 54°42' W 001°12'3 7.2
2018-Jun-12 21:46N 54°41' W 001°06'1 4.2
2018-Jun-12 21:26N 54°41' W 001°03'26 9.5
2018-Jun-12 18:42N 54°30' W 000°23'311.9
2018-Jun-12 18:27N 54°28' W 000°20'511.6
2018-Jun-12 18:00N 54°24' W 000°14'611.0
2018-Jun-12 17:30N 54°20' W 000°08'510.6
2018-Jun-12 17:01N 54°16' W 000°02'510.2
2018-Jun-12 16:31N 54°12' E 000°04'5 9.7
2018-Jun-12 16:01N 54°08' E 000°09'5 9.7
2018-Jun-12 15:30N 54°04' E 000°14'7210.6
2018-Jun-12 08:41N 53°05' E 001°22'210.9
2018-Jun-12 08:30N 53°03' E 001°25'510.3
2018-Jun-12 08:00N 52°60' E 001°30'5 9.6
2018-Jun-12 07:31N 52°56' E 001°36'5 9.2
2018-Jun-12 07:01N 52°53' E 001°42'4 8.9
2018-Jun-12 06:30N 52°50' E 001°47'5 9.1
2018-Jun-12 06:00N 52°48' E 001°54'4 8.5
2018-Jun-12 05:30N 52°45' E 001°58'3310.7
2018-Jun-12 02:24N 52°11' E 001°55'512.7
2018-Jun-12 02:00N 52°06' E 001°56'713.4
2018-Jun-12 01:30N 52°00' E 001°51'713.2
2018-Jun-12 01:01N 51°54' E 001°48'612.5
2018-Jun-12 00:30N 51°48' E 001°49'612.7
2018-Jun-12 00:00N 51°41' E 001°49'611.9
2018-Jun-11 23:30N 51°36' E 001°46'612.1
2018-Jun-11 23:01N 51°31' E 001°40'611.1
2018-Jun-11 22:30N 51°29' E 001°31'510.6
2018-Jun-11 22:00N 51°29' E 001°23'5 9.8
2018-Jun-11 21:30N 51°29' E 001°15'5 9.6
2018-Jun-11 21:00N 51°29' E 001°07'5 9.9
2018-Jun-11 20:30N 51°29' E 000°59'5 9.4
2018-Jun-11 20:00N 51°29' E 000°52'4 8.1
2018-Jun-11 19:30N 51°27' E 000°46'3 6.7
2018-Jun-11 19:00N 51°24' E 000°44'2 3.4
2018-Jun-11 18:29N 51°23' E 000°46'0 0.0
2018-Jun-11 18:00N 51°23' E 000°46'0 0.0
2018-Jun-11 17:29N 51°23' E 000°46'0 0.0
2018-Jun-11 16:59N 51°23' E 000°46'0 0.0
2018-Jun-11 12:00N 51°23' E 000°46'24 5.3
2018-Jun-11 07:26N 51°28' E 001°23'511.7
2018-Jun-11 07:01N 51°25' E 001°29'2 4.1
2018-Jun-11 06:30N 51°24' E 001°32'4 7.3
2018-Jun-11 06:01N 51°21' E 001°36'4 7.2
2018-Jun-11 05:30N 51°18' E 001°37'4 7.3
2018-Jun-11 05:00N 51°14' E 001°37'4 7.3
2018-Jun-11 04:30N 51°11' E 001°36'4 8.4
2018-Jun-11 04:00N 51°07' E 001°39'4 8.2
2018-Jun-11 03:30N 51°03' E 001°36'7 9.5
2018-Jun-11 02:47N 50°58' E 001°29'18 9.9
2018-Jun-11 00:58N 50°41' E 001°18'43 9.2
2018-Jun-10 20:16N 50°22' E 000°17'2 9.0
2018-Jun-10 20:00N 50°22' E 000°13'5 9.1
2018-Jun-10 19:29N 50°20' E 000°06'4 9.1
2018-Jun-10 19:01N 50°19' W 000°00'8 9.7
2018-Jun-10 18:08N 50°17' W 000°13'210.1
2018-Jun-10 17:58N 50°17' W 000°15'510.4
2018-Jun-10 17:30N 50°15' W 000°23'510.8
2018-Jun-10 17:01N 50°14' W 000°31'510.9
2018-Jun-10 16:31N 50°12' W 000°39'510.8
2018-Jun-10 16:00N 50°11' W 000°47'610.6
2018-Jun-10 15:27N 50°10' W 000°56'510.4
2018-Jun-10 15:01N 50°09' W 001°03'610.6
2018-Jun-10 14:26N 50°07' W 001°12'910.3
2018-Jun-10 13:31N 50°04' W 001°27'510.3
2018-Jun-10 13:00N 50°03' W 001°35'5 9.5
2018-Jun-10 12:30N 50°02' W 001°42'4 9.0
2018-Jun-10 12:01N 50°01' W 001°48'4 8.5
2018-Jun-10 11:31N 49°60' W 001°55'4 8.3
2018-Jun-10 11:00N 49°59' W 002°01'4 8.2
2018-Jun-10 10:28N 49°58' W 002°08'6 8.6
2018-Jun-10 09:48N 49°56' W 002°16'4 9.0
2018-Jun-10 09:18N 49°55' W 002°23'3 9.3
2018-Jun-10 09:00N 49°54' W 002°27'5 9.2
2018-Jun-10 08:30N 49°52' W 002°34'  

Dump ship's entire track history